createdAt,value
2023-06-11T00:03:57.859Z,55.58
2023-06-11T00:09:00.969Z,55.35
2023-06-11T00:14:02.688Z,55.51
2023-06-11T00:19:04.765Z,55.46
2023-06-11T00:24:08.095Z,54.77
2023-06-11T00:29:09.902Z,55.43
2023-06-11T00:34:11.645Z,54.78
2023-06-11T00:39:14.787Z,54.64
2023-06-11T00:44:18.935Z,55.00
2023-06-11T00:49:20.962Z,54.44
2023-06-11T00:54:24.023Z,55.00
2023-06-11T00:59:26.375Z,54.60
2023-06-11T01:04:28.181Z,54.40
2023-06-11T01:09:31.923Z,53.88
2023-06-11T01:14:34.700Z,54.11
2023-06-11T01:19:55.360Z,54.65
2023-06-11T01:25:16.662Z,54.82
2023-06-11T01:30:22.018Z,54.47
2023-06-11T01:35:25.617Z,54.05
2023-06-11T01:40:27.590Z,53.89
2023-06-11T01:45:37.989Z,54.10
2023-06-11T01:50:39.721Z,54.49
2023-06-11T01:55:43.709Z,54.76
2023-06-11T02:00:48.809Z,55.73
2023-06-11T02:05:50.861Z,55.85
2023-06-11T02:10:52.678Z,56.17
2023-06-11T02:15:56.010Z,56.00
2023-06-11T02:20:57.801Z,56.27
2023-06-11T02:25:59.536Z,56.11
2023-06-11T02:31:03.626Z,56.41
2023-06-11T02:36:06.424Z,57.14
2023-06-11T02:41:08.217Z,57.44
2023-06-11T02:46:11.463Z,57.20
2023-06-11T02:51:13.599Z,57.70
2023-06-11T02:56:15.662Z,58.35
2023-06-11T03:01:18.766Z,58.52
2023-06-11T03:06:20.630Z,59.03
2023-06-11T03:11:22.373Z,59.13
2023-06-11T03:16:25.566Z,59.58
2023-06-11T03:21:27.470Z,59.55
2023-06-11T03:26:29.595Z,59.38
2023-06-11T03:31:33.004Z,59.20
2023-06-11T03:36:34.794Z,59.36
2023-06-11T03:41:38.594Z,59.59
2023-06-11T03:46:42.625Z,59.68
2023-06-11T03:51:44.391Z,59.88
2023-06-11T03:56:46.185Z,60.23
2023-06-11T04:01:49.288Z,59.95
2023-06-11T04:06:51.889Z,60.19
2023-06-11T04:11:54.024Z,61.02
2023-06-11T04:16:57.247Z,61.37
2023-06-11T04:21:59.047Z,61.75
2023-06-11T04:27:01.236Z,61.36
2023-06-11T04:32:05.232Z,61.42
2023-06-11T04:37:09.834Z,61.25
2023-06-11T04:42:15.547Z,61.53
2023-06-11T04:47:23.394Z,60.93
2023-06-11T04:52:25.257Z,60.68
2023-06-11T04:57:27.172Z,60.29
2023-06-11T05:02:30.800Z,60.06
2023-06-11T05:07:33.354Z,59.16
2023-06-11T05:12:35.352Z,58.74
2023-06-11T05:17:40.556Z,58.69
2023-06-11T05:22:43.186Z,57.35
2023-06-11T05:27:46.161Z,55.44
2023-06-11T05:32:49.991Z,55.31
2023-06-11T05:37:51.847Z,52.95
2023-06-11T05:42:53.859Z,52.40
2023-06-11T05:47:57.125Z,51.08
2023-06-11T05:52:59.398Z,50.04
2023-06-11T05:58:01.247Z,49.83
2023-06-11T06:03:05.783Z,50.19
2023-06-11T06:08:09.234Z,49.78
2023-06-11T06:13:11.080Z,49.22
2023-06-11T06:18:16.797Z,48.96
2023-06-11T06:23:19.385Z,48.79
2023-06-11T06:28:29.346Z,47.96
2023-06-11T06:33:36.640Z,47.50
2023-06-11T06:38:39.006Z,47.89
2023-06-11T06:43:41.422Z,47.61
2023-06-11T06:48:52.112Z,46.61
2023-06-11T06:53:54.131Z,47.01
2023-06-11T06:58:56.041Z,45.80
2023-06-11T07:03:59.327Z,46.64
2023-06-11T07:09:01.175Z,45.46
2023-06-11T07:14:03.241Z,45.03
2023-06-11T07:19:06.426Z,44.17
2023-06-11T07:24:09.188Z,43.84
2023-06-11T07:29:12.932Z,43.67
2023-06-11T07:34:18.039Z,42.41
2023-06-11T07:39:19.946Z,42.24
2023-06-11T07:44:21.749Z,41.79
2023-06-11T07:49:24.925Z,42.11
2023-06-11T07:54:26.729Z,41.28
2023-06-11T07:59:30.476Z,40.17
2023-06-11T08:04:33.719Z,39.81
2023-06-11T08:09:38.776Z,38.66
2023-06-11T08:14:40.484Z,38.45
2023-06-11T08:19:43.540Z,36.68
2023-06-11T08:24:45.318Z,36.36
2023-06-11T08:29:47.020Z,36.46
2023-06-11T08:34:50.842Z,36.11
2023-06-11T08:39:52.569Z,34.88
2023-06-11T08:44:54.269Z,35.40
2023-06-11T08:49:57.326Z,34.89
2023-06-11T08:54:59.173Z,34.48
2023-06-11T09:00:00.843Z,34.36
2023-06-11T09:05:05.123Z,35.01
2023-06-11T09:10:07.414Z,33.00
2023-06-11T09:15:10.800Z,32.83
2023-06-11T09:20:15.301Z,31.46
2023-06-11T09:25:20.241Z,31.66
2023-06-11T09:30:22.773Z,30.41
2023-06-11T09:35:26.704Z,29.40
2023-06-11T09:40:28.416Z,28.97
2023-06-11T09:45:32.726Z,28.17
2023-06-11T09:50:36.236Z,28.45
2023-06-11T09:55:38.010Z,26.78
2023-06-11T10:00:39.757Z,27.31
2023-06-11T10:05:42.787Z,26.42
2023-06-11T10:10:45.797Z,26.92
2023-06-11T10:15:47.587Z,25.79
2023-06-11T10:20:54.179Z,26.11
2023-06-11T10:25:56.108Z,25.10
2023-06-11T10:30:57.824Z,25.58
2023-06-11T10:36:02.857Z,24.57
2023-06-11T10:41:04.915Z,24.37
2023-06-11T10:46:13.175Z,24.03
2023-06-11T10:51:16.754Z,23.95
2023-06-11T10:56:20.447Z,23.18
2023-06-11T11:01:22.394Z,24.63
2023-06-11T11:06:29.273Z,24.43
2023-06-11T11:11:31.098Z,24.55
2023-06-11T11:16:32.914Z,24.83
2023-06-11T11:21:37.486Z,24.23
2023-06-11T11:26:42.152Z,25.35
2023-06-11T11:31:43.986Z,24.64
2023-06-11T11:36:47.080Z,24.75
2023-06-11T11:41:48.835Z,24.43
2023-06-11T11:46:55.744Z,24.50
2023-06-11T11:52:01.800Z,23.95
2023-06-11T11:57:03.865Z,24.27
2023-06-11T12:02:06.301Z,24.98
2023-06-11T12:07:12.575Z,25.43
2023-06-11T12:12:14.396Z,26.03
2023-06-11T12:17:16.112Z,24.77
2023-06-11T12:22:20.646Z,24.42
2023-06-11T12:27:24.202Z,24.58
2023-06-11T12:32:26.441Z,24.56
2023-06-11T12:37:29.671Z,25.64
2023-06-11T12:42:33.526Z,25.83
2023-06-11T12:47:36.011Z,26.02
2023-06-11T12:52:41.253Z,25.96
2023-06-11T12:57:42.965Z,25.05
2023-06-11T13:02:45.251Z,24.98
2023-06-11T13:07:49.778Z,24.68
2023-06-11T13:12:53.029Z,24.25
2023-06-11T13:17:55.007Z,25.27
2023-06-11T13:22:58.140Z,24.98
2023-06-11T13:27:59.948Z,24.79
2023-06-11T13:33:01.837Z,24.64
2023-06-11T13:38:06.033Z,25.04
2023-06-11T13:43:07.810Z,24.83
2023-06-11T13:48:12.958Z,25.16
2023-06-11T13:53:16.197Z,24.18
2023-06-11T13:58:17.925Z,24.07
2023-06-11T14:03:19.769Z,24.48
2023-06-11T14:08:22.832Z,23.26
2023-06-11T14:13:24.751Z,23.62
2023-06-11T14:18:26.469Z,25.06
2023-06-11T14:23:29.646Z,24.24
2023-06-11T14:28:31.400Z,22.81
2023-06-11T14:33:33.215Z,23.94
2023-06-11T14:38:36.609Z,24.59
2023-06-11T14:43:38.310Z,24.81
2023-06-11T14:48:40.132Z,24.71
2023-06-11T14:53:43.245Z,24.70
2023-06-11T14:58:44.945Z,23.71
2023-06-11T15:03:46.666Z,24.62
2023-06-11T15:08:49.785Z,23.75
2023-06-11T15:13:51.606Z,23.01
2023-06-11T15:18:53.340Z,23.35
2023-06-11T15:23:56.472Z,22.35
2023-06-11T15:28:59.286Z,22.40
2023-06-11T15:34:01.095Z,23.00
2023-06-11T15:39:04.234Z,22.45
2023-06-11T15:44:05.958Z,22.28
2023-06-11T15:49:07.669Z,22.21
2023-06-11T15:54:10.869Z,22.17
2023-06-11T15:59:12.652Z,22.37
2023-06-11T16:04:14.452Z,21.89
2023-06-11T16:09:17.561Z,22.45
2023-06-11T16:14:20.027Z,22.41
2023-06-11T16:19:21.775Z,21.96
2023-06-11T16:24:24.921Z,22.15
2023-06-11T16:29:26.732Z,22.97
2023-06-11T16:34:29.710Z,21.87
2023-06-11T16:39:33.068Z,22.25
2023-06-11T16:44:34.779Z,21.08
2023-06-11T16:49:36.499Z,21.80
2023-06-11T16:54:39.824Z,22.85
2023-06-11T16:59:41.634Z,22.70
2023-06-11T17:04:44.045Z,22.39
2023-06-11T17:09:47.306Z,21.00
2023-06-11T17:14:49.834Z,22.19
2023-06-11T17:19:53.121Z,23.29
2023-06-11T17:24:56.157Z,22.59
2023-06-11T17:29:57.998Z,24.50
2023-06-11T17:34:59.779Z,24.82
2023-06-11T17:40:02.850Z,25.60
2023-06-11T17:45:05.438Z,24.94
2023-06-11T17:50:08.327Z,24.83
2023-06-11T17:55:14.280Z,25.60
2023-06-11T18:00:16.997Z,25.95
2023-06-11T18:05:18.751Z,26.64
2023-06-11T18:10:21.894Z,27.39
2023-06-11T18:15:33.057Z,27.18
2023-06-11T18:20:36.942Z,27.62
2023-06-11T18:25:40.027Z,27.50
2023-06-11T18:30:42.120Z,27.63
2023-06-11T18:35:43.893Z,27.51
2023-06-11T18:40:46.930Z,27.88
2023-06-11T18:45:48.718Z,27.90
2023-06-11T18:50:50.559Z,27.53
2023-06-11T18:55:53.598Z,36.29
2023-06-11T19:00:55.407Z,32.05
2023-06-11T19:05:57.185Z,34.06
2023-06-11T19:11:00.399Z,30.96
2023-06-11T19:16:02.100Z,30.97
2023-06-11T19:21:03.867Z,32.66
2023-06-11T19:26:07.042Z,32.79
2023-06-11T19:31:08.801Z,32.24
2023-06-11T19:36:10.810Z,33.85
2023-06-11T19:41:15.771Z,32.33
2023-06-11T19:46:17.794Z,32.13
2023-06-11T19:51:20.301Z,32.45
2023-06-11T19:56:23.472Z,32.59
2023-06-11T20:01:25.391Z,33.40
2023-06-11T20:06:27.318Z,33.90
2023-06-11T20:11:30.600Z,33.81
2023-06-11T20:16:32.460Z,34.64
2023-06-11T20:21:34.269Z,35.34
2023-06-11T20:26:37.449Z,35.56
2023-06-11T20:31:39.243Z,36.06
2023-06-11T20:36:41.649Z,35.81
2023-06-11T20:41:44.704Z,35.76
2023-06-11T20:46:46.581Z,36.24
2023-06-11T20:51:48.362Z,36.75
2023-06-11T20:56:52.045Z,37.04
2023-06-11T21:01:53.842Z,36.95
2023-06-11T21:06:55.801Z,37.58
2023-06-11T21:11:59.273Z,37.36
2023-06-11T21:17:01.133Z,37.85
2023-06-11T21:22:02.961Z,38.20
2023-06-11T21:27:08.456Z,38.54
2023-06-11T21:32:10.249Z,39.63
2023-06-11T21:37:13.097Z,39.79
2023-06-11T21:42:16.232Z,40.09
2023-06-11T21:47:18.140Z,40.15
2023-06-11T21:52:22.514Z,40.11
2023-06-11T21:57:25.762Z,40.33
2023-06-11T22:02:27.661Z,40.04
2023-06-11T22:07:31.252Z,40.39
2023-06-11T22:12:41.143Z,40.47
2023-06-11T22:17:47.479Z,40.68
2023-06-11T22:22:49.384Z,40.46
2023-06-11T22:27:52.902Z,40.53
2023-06-11T22:32:54.766Z,40.74
2023-06-11T22:37:56.479Z,41.16
2023-06-11T22:42:59.632Z,41.82
2023-06-11T22:48:04.200Z,42.34
2023-06-11T22:53:05.934Z,42.16
2023-06-11T22:58:09.106Z,42.62
2023-06-11T23:03:12.717Z,43.35
2023-06-11T23:08:14.591Z,43.11
2023-06-11T23:13:17.681Z,43.21
2023-06-11T23:18:19.467Z,43.80
2023-06-11T23:23:21.204Z,44.25
2023-06-11T23:28:25.971Z,44.81
2023-06-11T23:33:31.509Z,45.25
2023-06-11T23:38:33.227Z,45.31
2023-06-11T23:43:36.799Z,45.84
2023-06-11T23:48:38.645Z,46.92
2023-06-11T23:53:40.464Z,47.14
2023-06-11T23:58:43.651Z,47.46
